createdAt,value
2022-08-14T00:01:11.503Z,41.93
2022-08-14T00:03:40.683Z,41.99
2022-08-14T00:06:25.912Z,41.86
2022-08-14T00:08:58.954Z,41.97
2022-08-14T00:11:31.866Z,42.14
2022-08-14T00:14:02.836Z,42.17
2022-08-14T00:16:41.291Z,42.20
2022-08-14T00:19:19.792Z,42.21
2022-08-14T00:21:52.175Z,42.24
2022-08-14T00:24:28.511Z,42.32
2022-08-14T00:27:02.224Z,42.37
2022-08-14T00:29:40.132Z,42.59
2022-08-14T00:32:52.559Z,42.73
2022-08-14T00:34:56.480Z,42.67
2022-08-14T00:37:23.511Z,42.93
2022-08-14T00:39:51.225Z,43.02
2022-08-14T00:42:55.157Z,42.96
2022-08-14T00:45:13.911Z,42.96
2022-08-14T00:47:44.877Z,43.13
2022-08-14T00:50:16.693Z,43.21
2022-08-14T00:52:46.640Z,43.40
2022-08-14T00:55:19.912Z,43.65
2022-08-14T00:58:07.169Z,43.79
2022-08-14T01:00:37.410Z,43.71
2022-08-14T01:03:18.464Z,43.83
2022-08-14T01:05:50.914Z,43.81
2022-08-14T01:08:51.213Z,43.75
2022-08-14T01:11:09.698Z,43.41
2022-08-14T01:13:42.258Z,43.72
2022-08-14T01:16:14.959Z,43.75
2022-08-14T01:19:02.283Z,43.22
2022-08-14T01:21:46.940Z,43.37
2022-08-14T01:24:24.734Z,43.37
2022-08-14T01:27:00.349Z,43.34
2022-08-14T01:29:58.965Z,43.42
2022-08-14T01:32:23.296Z,43.54
2022-08-14T01:35:17.958Z,43.55
2022-08-14T01:37:56.172Z,43.33
2022-08-14T01:40:36.518Z,43.46
2022-08-14T01:43:13.744Z,43.36
2022-08-14T01:45:41.116Z,43.33
2022-08-14T01:48:13.826Z,43.63
2022-08-14T01:50:42.121Z,43.71
2022-08-14T01:53:09.707Z,44.01
2022-08-14T01:55:38.608Z,44.00
2022-08-14T01:58:19.386Z,43.75
2022-08-14T02:00:55.031Z,43.90
2022-08-14T02:03:32.042Z,44.23
2022-08-14T02:06:04.144Z,44.40
2022-08-14T02:08:53.014Z,44.19
2022-08-14T02:11:23.737Z,44.61
2022-08-14T02:13:52.291Z,44.77
2022-08-14T02:16:25.337Z,45.01
2022-08-14T02:18:55.518Z,44.95
2022-08-14T02:21:23.413Z,45.01
2022-08-14T02:23:53.496Z,45.15
2022-08-14T02:26:29.950Z,44.84
2022-08-14T02:29:03.434Z,45.16
2022-08-14T02:31:42.654Z,45.55
2022-08-14T02:34:22.065Z,45.81
2022-08-14T02:37:04.719Z,45.43
2022-08-14T02:39:42.565Z,45.68
2022-08-14T02:42:13.557Z,45.74
2022-08-14T02:44:42.966Z,45.38
2022-08-14T02:47:14.946Z,45.77
2022-08-14T02:49:42.817Z,45.72
2022-08-14T02:52:56.857Z,45.79
2022-08-14T02:54:57.593Z,45.70
2022-08-14T02:57:40.375Z,45.93
2022-08-14T03:00:10.184Z,46.01
2022-08-14T03:02:56.399Z,46.05
2022-08-14T03:05:24.055Z,46.15
2022-08-14T03:07:52.975Z,45.74
2022-08-14T03:10:25.850Z,45.82
2022-08-14T03:12:55.250Z,45.49
2022-08-14T03:15:22.208Z,45.90
2022-08-14T03:17:57.146Z,45.99
2022-08-14T03:20:28.317Z,46.17
2022-08-14T03:23:03.056Z,46.07
2022-08-14T03:25:33.366Z,45.75
2022-08-14T03:28:07.271Z,45.99
2022-08-14T03:30:39.657Z,45.67
2022-08-14T03:33:10.595Z,45.86
2022-08-14T03:35:59.774Z,46.05
2022-08-14T03:39:13.230Z,45.74
2022-08-14T03:41:18.710Z,46.28
2022-08-14T03:43:47.648Z,46.06
2022-08-14T03:46:46.674Z,45.90
2022-08-14T03:49:24.345Z,46.28
2022-08-14T03:51:55.558Z,46.06
2022-08-14T03:54:24.521Z,46.41
2022-08-14T03:56:51.198Z,46.03
2022-08-14T03:59:19.617Z,46.46
2022-08-14T04:01:57.811Z,46.65
2022-08-14T04:04:29.440Z,46.21
2022-08-14T04:06:59.182Z,45.89
2022-08-14T04:09:27.383Z,46.16
2022-08-14T04:11:56.203Z,46.17
2022-08-14T04:14:25.197Z,45.97
2022-08-14T04:16:51.905Z,46.03
2022-08-14T04:19:19.999Z,45.89
2022-08-14T04:22:02.944Z,46.06
2022-08-14T04:24:38.037Z,45.91
2022-08-14T04:27:09.653Z,46.07
2022-08-14T04:29:38.457Z,45.76
2022-08-14T04:33:10.598Z,45.36
2022-08-14T04:34:55.211Z,44.96
2022-08-14T04:37:42.906Z,44.79
2022-08-14T04:40:28.746Z,44.90
2022-08-14T04:43:17.347Z,44.51
2022-08-14T04:45:44.484Z,44.88
2022-08-14T04:48:39.460Z,44.57
2022-08-14T04:51:01.836Z,44.44
2022-08-14T04:53:34.722Z,44.21
2022-08-14T04:56:06.053Z,44.47
2022-08-14T04:58:39.104Z,45.15
2022-08-14T05:01:12.514Z,43.76
2022-08-14T05:03:44.079Z,42.99
2022-08-14T05:06:39.059Z,42.29
2022-08-14T05:08:59.711Z,42.03
2022-08-14T05:11:27.497Z,41.37
2022-08-14T05:14:34.437Z,41.02
2022-08-14T05:16:46.558Z,40.72
2022-08-14T05:19:18.938Z,40.51
2022-08-14T05:22:01.160Z,39.93
2022-08-14T05:24:42.961Z,39.03
2022-08-14T05:27:10.401Z,39.10
2022-08-14T05:29:37.294Z,39.25
2022-08-14T05:32:07.559Z,38.70
2022-08-14T05:34:34.208Z,38.69
2022-08-14T05:37:03.256Z,38.56
2022-08-14T05:39:31.679Z,38.52
2022-08-14T05:42:00.592Z,37.81
2022-08-14T05:44:30.148Z,37.07
2022-08-14T05:46:58.337Z,36.92
2022-08-14T05:49:26.119Z,36.93
2022-08-14T05:52:02.031Z,36.46
2022-08-14T05:54:33.947Z,37.08
2022-08-14T05:57:03.156Z,36.38
2022-08-14T05:59:38.755Z,36.37
2022-08-14T06:02:07.829Z,36.30
2022-08-14T06:04:37.236Z,36.04
2022-08-14T06:07:04.308Z,35.92
2022-08-14T06:09:35.745Z,36.24
2022-08-14T06:12:08.463Z,36.13
2022-08-14T06:14:36.063Z,36.43
2022-08-14T06:17:04.607Z,35.94
2022-08-14T06:19:31.515Z,35.99
2022-08-14T06:21:59.099Z,36.47
2022-08-14T06:24:27.124Z,36.14
2022-08-14T06:26:56.810Z,36.47
2022-08-14T06:29:32.445Z,36.59
2022-08-14T06:32:48.729Z,36.43
2022-08-14T06:35:09.121Z,35.91
2022-08-14T06:37:58.897Z,36.53
2022-08-14T06:40:30.294Z,36.62
2022-08-14T06:43:07.122Z,37.12
2022-08-14T06:45:39.803Z,36.92
2022-08-14T06:48:19.127Z,36.92
2022-08-14T06:50:48.666Z,37.08
2022-08-14T06:53:16.534Z,37.16
2022-08-14T06:55:58.026Z,36.80
2022-08-14T06:58:29.186Z,36.87
2022-08-14T07:01:15.403Z,37.35
2022-08-14T07:04:00.958Z,37.18
2022-08-14T07:06:45.666Z,37.47
2022-08-14T07:09:18.161Z,37.04
2022-08-14T07:11:49.764Z,36.81
2022-08-14T07:14:16.356Z,37.15
2022-08-14T07:16:42.919Z,37.47
2022-08-14T07:19:09.975Z,37.07
2022-08-14T07:21:37.504Z,36.22
2022-08-14T07:24:04.708Z,36.35
2022-08-14T07:26:31.288Z,36.51
2022-08-14T07:28:57.873Z,36.23
2022-08-14T07:31:24.423Z,35.67
2022-08-14T07:33:51.704Z,35.78
2022-08-14T07:36:27.715Z,35.58
2022-08-14T07:39:00.835Z,35.54
2022-08-14T07:41:33.939Z,35.43
2022-08-14T07:44:28.728Z,35.53
2022-08-14T07:46:48.651Z,35.12
2022-08-14T07:49:18.096Z,34.92
2022-08-14T07:51:45.662Z,34.56
2022-08-14T07:54:16.635Z,34.72
2022-08-14T07:56:53.909Z,34.79
2022-08-14T07:59:40.605Z,35.28
2022-08-14T08:02:19.637Z,35.40
2022-08-14T08:04:55.192Z,35.49
2022-08-14T08:07:29.596Z,34.88
2022-08-14T08:09:58.417Z,34.47
2022-08-14T08:12:30.148Z,34.52
2022-08-14T08:15:03.004Z,34.25
2022-08-14T08:17:39.049Z,34.32
2022-08-14T08:20:16.906Z,34.10
2022-08-14T08:22:55.910Z,33.10
2022-08-14T08:25:24.738Z,33.38
2022-08-14T08:28:19.737Z,33.31
2022-08-14T08:31:08.263Z,32.65
2022-08-14T08:33:39.239Z,33.29
2022-08-14T08:36:13.003Z,33.10
2022-08-14T08:39:16.568Z,32.78
2022-08-14T08:41:59.186Z,32.80
2022-08-14T08:44:34.557Z,32.31
2022-08-14T08:47:06.477Z,32.46
2022-08-14T08:49:43.229Z,32.28
2022-08-14T08:52:24.952Z,31.83
2022-08-14T08:54:56.134Z,31.82
2022-08-14T08:57:24.247Z,31.97
2022-08-14T08:59:54.934Z,31.61
2022-08-14T09:02:26.112Z,31.88
2022-08-14T09:05:03.798Z,31.35
2022-08-14T09:07:30.701Z,31.25
2022-08-14T09:09:59.021Z,31.30
2022-08-14T09:12:31.645Z,31.37
2022-08-14T09:15:11.754Z,31.06
2022-08-14T09:17:41.537Z,31.18
2022-08-14T09:20:11.623Z,31.13
2022-08-14T09:22:42.704Z,30.97
2022-08-14T09:25:16.138Z,30.33
2022-08-14T09:27:42.967Z,29.83
2022-08-14T09:30:12.752Z,30.26
2022-08-14T09:33:15.132Z,30.21
2022-08-14T09:36:14.043Z,29.82
2022-08-14T09:39:02.184Z,29.90
2022-08-14T09:42:21.953Z,28.40
2022-08-14T09:45:12.205Z,28.21
2022-08-14T09:47:41.544Z,28.22
2022-08-14T09:50:26.885Z,27.32
2022-08-14T09:53:03.947Z,27.57
2022-08-14T09:55:41.420Z,27.06
2022-08-14T09:58:19.618Z,26.13
2022-08-14T10:00:52.835Z,25.50
2022-08-14T10:03:33.976Z,24.58
2022-08-14T10:06:13.706Z,23.99
2022-08-14T10:08:51.113Z,23.81
2022-08-14T10:11:35.174Z,23.60
2022-08-14T10:14:29.133Z,22.90
2022-08-14T10:17:02.561Z,23.03
2022-08-14T10:19:35.562Z,22.78
2022-08-14T10:23:12.161Z,22.55
2022-08-14T10:24:59.822Z,22.93
2022-08-14T10:27:28.163Z,22.65
2022-08-14T10:30:01.007Z,22.42
2022-08-14T10:32:36.601Z,22.18
2022-08-14T10:35:14.007Z,22.39
2022-08-14T10:37:53.056Z,22.69
2022-08-14T10:40:37.605Z,22.68
2022-08-14T10:43:17.899Z,22.46
2022-08-14T10:45:59.895Z,22.33
2022-08-14T10:48:45.946Z,22.28
2022-08-14T10:51:15.099Z,22.16
2022-08-14T10:53:41.769Z,22.10
2022-08-14T10:56:21.745Z,22.03
2022-08-14T10:59:08.147Z,21.06
2022-08-14T11:01:41.761Z,20.84
2022-08-14T11:04:26.111Z,20.64
2022-08-14T11:06:55.332Z,20.83
2022-08-14T11:09:22.886Z,20.94
2022-08-14T11:11:56.556Z,20.41
2022-08-14T11:14:51.211Z,20.06
2022-08-14T11:17:31.754Z,19.97
2022-08-14T11:20:01.697Z,19.46
2022-08-14T11:22:55.606Z,19.49
2022-08-14T11:25:23.821Z,19.44
2022-08-14T11:27:53.425Z,19.18
2022-08-14T11:30:51.296Z,18.81
2022-08-14T11:33:13.285Z,18.96
2022-08-14T11:35:47.708Z,18.87
2022-08-14T11:38:17.038Z,18.65
2022-08-14T11:40:47.248Z,18.98
2022-08-14T11:43:14.965Z,19.26
2022-08-14T11:45:48.847Z,18.81
2022-08-14T11:49:02.526Z,18.73
2022-08-14T11:51:14.941Z,18.49
2022-08-14T11:53:50.324Z,18.01
2022-08-14T11:56:17.584Z,17.60
2022-08-14T11:58:51.206Z,17.14
2022-08-14T12:01:27.148Z,16.52
2022-08-14T12:03:57.188Z,16.72
2022-08-14T12:06:29.106Z,16.02
2022-08-14T12:09:08.848Z,15.67
2022-08-14T12:11:44.208Z,16.22
2022-08-14T12:14:30.298Z,15.95
2022-08-14T12:17:12.614Z,15.85
2022-08-14T12:20:00.461Z,15.77
2022-08-14T12:22:37.278Z,16.01
2022-08-14T12:25:11.324Z,16.20
2022-08-14T12:27:51.993Z,15.86
2022-08-14T12:30:44.655Z,16.04
2022-08-14T12:33:32.915Z,15.45
2022-08-14T12:36:04.659Z,15.71
2022-08-14T12:38:44.027Z,15.52
2022-08-14T12:41:20.235Z,15.62
2022-08-14T12:43:53.574Z,15.40
2022-08-14T12:46:27.324Z,15.63
2022-08-14T12:48:56.761Z,15.76
2022-08-14T12:51:27.268Z,15.19
2022-08-14T12:54:00.019Z,15.48
2022-08-14T12:56:33.175Z,15.50
2022-08-14T12:59:01.778Z,15.60
2022-08-14T13:01:59.142Z,15.55
2022-08-14T13:04:18.944Z,15.34
2022-08-14T13:06:50.731Z,15.92
2022-08-14T13:09:19.251Z,16.07
2022-08-14T13:11:58.548Z,16.08
2022-08-14T13:14:38.452Z,16.37
2022-08-14T13:17:05.683Z,16.09
2022-08-14T13:19:35.637Z,16.27
2022-08-14T13:22:10.170Z,16.19
2022-08-14T13:24:48.031Z,16.70
2022-08-14T13:27:15.891Z,16.57
2022-08-14T13:29:47.512Z,16.61
2022-08-14T13:32:15.244Z,16.84
2022-08-14T13:34:43.808Z,16.80
2022-08-14T13:37:14.635Z,16.65
2022-08-14T13:39:56.747Z,16.72
2022-08-14T13:42:30.640Z,16.07
2022-08-14T13:44:59.996Z,16.03
2022-08-14T13:47:30.377Z,16.20
2022-08-14T13:50:00.482Z,15.70
2022-08-14T13:52:52.450Z,15.72
2022-08-14T13:55:22.623Z,15.61
2022-08-14T13:58:04.466Z,15.01
2022-08-14T14:00:53.526Z,14.97
2022-08-14T14:03:23.946Z,14.71
2022-08-14T14:05:55.348Z,14.26
2022-08-14T14:08:46.021Z,14.43
2022-08-14T14:11:15.649Z,14.82
2022-08-14T14:13:47.062Z,14.55
2022-08-14T14:16:21.778Z,14.14
2022-08-14T14:18:56.116Z,14.34
2022-08-14T14:21:26.556Z,14.40
2022-08-14T14:23:56.475Z,13.84
2022-08-14T14:26:24.728Z,13.59
2022-08-14T14:28:56.611Z,13.67
2022-08-14T14:31:29.785Z,13.65
2022-08-14T14:34:07.372Z,13.75
2022-08-14T14:36:43.525Z,13.00
2022-08-14T14:39:10.585Z,13.52
2022-08-14T14:41:44.413Z,13.08
2022-08-14T14:44:13.614Z,13.50
2022-08-14T14:46:49.477Z,12.80
2022-08-14T14:49:18.182Z,13.14
2022-08-14T14:51:51.483Z,13.28
2022-08-14T14:54:31.972Z,13.82
2022-08-14T14:57:05.045Z,14.12
2022-08-14T14:59:37.392Z,14.11
2022-08-14T15:02:09.107Z,14.73
2022-08-14T15:04:38.513Z,14.51
2022-08-14T15:07:07.963Z,15.02
2022-08-14T15:09:34.772Z,15.50
2022-08-14T15:12:05.637Z,15.44
2022-08-14T15:14:55.224Z,16.04
2022-08-14T15:17:25.240Z,16.74
2022-08-14T15:19:56.842Z,16.57
2022-08-14T15:22:25.333Z,16.95
2022-08-14T15:24:52.159Z,16.86
2022-08-14T15:27:26.253Z,17.33
2022-08-14T15:29:53.767Z,17.50
2022-08-14T15:32:23.193Z,17.30
2022-08-14T15:34:52.630Z,17.26
2022-08-14T15:37:22.203Z,17.16
2022-08-14T15:39:49.927Z,17.27
2022-08-14T15:42:20.561Z,17.19
2022-08-14T15:44:58.587Z,17.50
2022-08-14T15:47:31.001Z,17.35
2022-08-14T15:50:00.699Z,17.37
2022-08-14T15:52:35.342Z,16.88
2022-08-14T15:55:08.096Z,16.86
2022-08-14T15:57:36.081Z,17.09
2022-08-14T16:00:43.931Z,16.99
2022-08-14T16:03:14.277Z,17.34
2022-08-14T16:05:44.230Z,17.30
2022-08-14T16:08:26.713Z,17.82
2022-08-14T16:10:57.816Z,17.64
2022-08-14T16:13:41.129Z,17.74
2022-08-14T16:16:47.020Z,18.32
2022-08-14T16:19:10.857Z,18.30
2022-08-14T16:22:01.474Z,18.68
2022-08-14T16:24:33.284Z,18.77
2022-08-14T16:27:01.680Z,19.21
2022-08-14T16:29:31.161Z,18.95
2022-08-14T16:32:09.140Z,18.75
2022-08-14T16:34:51.107Z,18.82
2022-08-14T16:37:23.534Z,19.24
2022-08-14T16:40:00.067Z,19.74
2022-08-14T16:42:38.961Z,19.48
2022-08-14T16:45:18.641Z,19.88
2022-08-14T16:47:47.805Z,20.17
2022-08-14T16:50:40.079Z,20.38
2022-08-14T16:53:07.361Z,20.87
2022-08-14T16:55:53.318Z,21.62
2022-08-14T16:58:28.950Z,21.86
2022-08-14T17:01:25.085Z,22.14
2022-08-14T17:04:06.583Z,22.57
2022-08-14T17:06:47.943Z,23.01
2022-08-14T17:09:36.055Z,23.25
2022-08-14T17:12:07.626Z,23.72
2022-08-14T17:14:54.420Z,23.96
2022-08-14T17:17:25.709Z,24.64
2022-08-14T17:20:01.076Z,24.63
2022-08-14T17:22:52.327Z,25.30
2022-08-14T17:25:23.919Z,25.43
2022-08-14T17:28:49.940Z,25.66
2022-08-14T17:31:15.692Z,25.97
2022-08-14T17:33:51.754Z,26.01
2022-08-14T17:36:23.060Z,26.17
2022-08-14T17:39:06.919Z,26.22
2022-08-14T17:42:02.081Z,26.34
2022-08-14T17:44:45.085Z,26.63
2022-08-14T17:47:14.505Z,26.74
2022-08-14T17:49:52.124Z,26.91
2022-08-14T17:52:36.538Z,27.49
2022-08-14T17:55:12.482Z,29.08
2022-08-14T17:57:58.806Z,30.47
2022-08-14T18:00:25.707Z,31.06
2022-08-14T18:02:53.985Z,31.43
2022-08-14T18:05:23.297Z,32.22
2022-08-14T18:08:33.757Z,33.38
2022-08-14T18:10:57.938Z,34.67
2022-08-14T18:13:39.021Z,35.46
2022-08-14T18:16:19.822Z,36.83
2022-08-14T18:18:47.915Z,37.44
2022-08-14T18:21:40.164Z,37.81
2022-08-14T18:24:02.296Z,38.55
2022-08-14T18:26:36.494Z,38.96
2022-08-14T18:29:15.039Z,38.88
2022-08-14T18:31:44.006Z,39.37
2022-08-14T18:34:32.248Z,39.66
2022-08-14T18:37:11.045Z,39.87
2022-08-14T18:40:01.707Z,39.88
2022-08-14T18:42:34.661Z,39.82
2022-08-14T18:45:01.798Z,39.79
2022-08-14T18:47:32.724Z,39.22
2022-08-14T18:50:26.877Z,39.48
2022-08-14T18:53:07.133Z,39.05
2022-08-14T18:55:33.774Z,39.35
2022-08-14T18:58:00.928Z,39.62
2022-08-14T19:00:33.121Z,39.77
2022-08-14T19:03:04.502Z,40.28
2022-08-14T19:05:49.500Z,40.67
2022-08-14T19:08:28.087Z,41.05
2022-08-14T19:11:03.955Z,41.06
2022-08-14T19:13:44.775Z,41.32
2022-08-14T19:16:16.492Z,42.02
2022-08-14T19:19:00.351Z,42.30
2022-08-14T19:21:40.937Z,42.29
2022-08-14T19:24:27.115Z,43.15
2022-08-14T19:27:24.520Z,44.25
2022-08-14T19:30:20.311Z,44.29
2022-08-14T19:32:50.685Z,44.81
2022-08-14T19:35:49.083Z,45.58
2022-08-14T19:38:46.343Z,46.51
2022-08-14T19:41:19.744Z,48.48
2022-08-14T19:43:55.276Z,48.99
2022-08-14T19:46:37.623Z,49.90
2022-08-14T19:49:23.043Z,51.03
2022-08-14T19:51:50.258Z,51.76
2022-08-14T19:54:17.172Z,53.24
2022-08-14T19:56:46.158Z,53.88
2022-08-14T19:59:19.213Z,53.94
2022-08-14T20:01:51.102Z,54.92
2022-08-14T20:04:46.068Z,54.53
2022-08-14T20:08:00.174Z,54.42
2022-08-14T20:11:03.588Z,54.03
2022-08-14T20:13:32.582Z,54.21
2022-08-14T20:16:12.288Z,53.94
2022-08-14T20:18:50.724Z,53.68
2022-08-14T20:21:18.480Z,53.15
2022-08-14T20:23:47.833Z,52.69
2022-08-14T20:26:31.193Z,52.31
2022-08-14T20:29:04.819Z,52.46
2022-08-14T20:31:35.601Z,51.88
2022-08-14T20:34:24.723Z,52.39
2022-08-14T20:37:04.729Z,52.94
2022-08-14T20:39:54.357Z,52.44
2022-08-14T20:42:43.296Z,52.37
2022-08-14T20:45:23.616Z,52.28
2022-08-14T20:48:01.503Z,53.38
2022-08-14T20:50:29.787Z,54.00
2022-08-14T20:52:58.195Z,54.89
2022-08-14T20:55:37.264Z,55.03
2022-08-14T20:58:41.899Z,55.44
2022-08-14T21:01:18.916Z,56.12
2022-08-14T21:03:56.777Z,56.12
2022-08-14T21:07:23.967Z,55.72
2022-08-14T21:10:03.035Z,55.67
2022-08-14T21:12:34.757Z,55.43
2022-08-14T21:14:55.465Z,55.32
2022-08-14T21:17:25.296Z,55.22
2022-08-14T21:19:53.322Z,54.74
2022-08-14T21:22:19.966Z,54.69
2022-08-14T21:24:47.401Z,54.53
2022-08-14T21:27:20.166Z,54.49
2022-08-14T21:29:54.210Z,54.13
2022-08-14T21:32:50.052Z,54.17
2022-08-14T21:35:18.733Z,53.93
2022-08-14T21:37:48.030Z,53.84
2022-08-14T21:40:35.370Z,53.72
2022-08-14T21:43:05.008Z,53.19
2022-08-14T21:45:35.361Z,53.49
2022-08-14T21:48:10.515Z,53.50
2022-08-14T21:51:01.322Z,53.69
2022-08-14T21:53:31.122Z,53.60
2022-08-14T21:55:58.135Z,53.72
2022-08-14T21:58:54.122Z,53.44
2022-08-14T22:01:15.833Z,53.50
2022-08-14T22:03:45.055Z,53.68
2022-08-14T22:06:19.491Z,53.95
2022-08-14T22:08:46.737Z,54.10
2022-08-14T22:11:21.167Z,54.59
2022-08-14T22:13:48.935Z,54.46
2022-08-14T22:16:59.749Z,54.80
2022-08-14T22:19:06.287Z,54.98
2022-08-14T22:21:38.584Z,55.11
2022-08-14T22:24:12.746Z,55.09
2022-08-14T22:27:01.256Z,55.38
2022-08-14T22:29:28.766Z,55.00
2022-08-14T22:31:55.821Z,55.15
2022-08-14T22:34:23.815Z,55.39
2022-08-14T22:36:50.603Z,55.48
2022-08-14T22:40:15.370Z,55.49
2022-08-14T22:42:21.343Z,55.80
2022-08-14T22:44:50.673Z,55.54
2022-08-14T22:47:19.188Z,56.04
2022-08-14T22:50:30.218Z,56.07
2022-08-14T22:52:39.837Z,56.59
2022-08-14T22:55:07.926Z,56.83
2022-08-14T22:57:37.235Z,56.89
2022-08-14T23:00:13.042Z,56.80
2022-08-14T23:02:40.832Z,56.63
2022-08-14T23:05:12.951Z,57.11
2022-08-14T23:08:56.938Z,56.93
2022-08-14T23:10:31.774Z,57.20
2022-08-14T23:13:02.323Z,57.32
2022-08-14T23:15:30.383Z,57.50
2022-08-14T23:17:58.027Z,57.35
2022-08-14T23:20:29.372Z,57.62
2022-08-14T23:22:57.987Z,57.47
2022-08-14T23:25:57.977Z,57.42
2022-08-14T23:28:32.893Z,57.24
2022-08-14T23:31:02.490Z,57.24
2022-08-14T23:33:33.224Z,57.00
2022-08-14T23:36:00.129Z,56.90
2022-08-14T23:38:31.006Z,57.51
2022-08-14T23:41:00.782Z,57.89
2022-08-14T23:43:31.419Z,57.82
2022-08-14T23:45:58.911Z,58.49
2022-08-14T23:48:28.154Z,59.02
2022-08-14T23:50:55.158Z,59.37
2022-08-14T23:53:47.255Z,59.84
2022-08-14T23:56:20.185Z,59.53
2022-08-14T23:59:01.033Z,59.85
